Terminal Aerodrome Forecast
Issued by NWS

Home | Current Version | Previous Version | Text Only | Print | Product List | Glossary On
Versions: 1 2 3 4 5 6 7 8 9 10 11 12 13 14 15 16 17 18 19 20 21 22 23 24 25 26 27
025
FTUS46 KMTR 101720
TAFSFO
TAF
KSFO 101720Z 1018/1124 VRB04KT P6SM SCT200
     FM102100 32006KT P6SM SCT200
     FM110100 29009KT P6SM SCT200
     FM110400 28006KT P6SM SCT200
     FM111000 26004KT 6SM BR SCT200
     FM111500 24003KT 6SM HZ SCT200
     FM111700 25005KT P6SM SCT200
     FM112100 29008KT P6SM SCT200=

USA.gov is the U.S. government's official web portal to all federal, state and local government web resources and services.